TAF SBGL
SBGL 072123Z 0800/0906 15007KT 4000 BR SCT015 BKN023 TN20/0808Z TX25/0816Z BECMG 0800/0803 23005KT 7000 NSW PROB40 0807/0810 4000 DZ BR BKN010 BECMG 0811/0814 21010KT BECMG 0815/0817 18012KT PROB40 0817/0819 TSRA BKN020 FEW025CB BECMG 0820/0823 2200 7KT BECMG 0901/0904 28005KT RMK PHC=
METAR SBGL
SBGL 080300Z 04005KT 4000 RA BR SCT013 BKN020 OVC030 20/19 Q1014=
SBGL 080200Z 34004KT 280V020 9999 FEW008 BKN018 OVC030 20/19 Q1015=
SBGL 080100Z 11007KT 8000 -RA FEW015 SCT060 BKN100 19/18 Q1015 RERA=
SBGL 080000Z 12006KT 090V170 8000 -RA FEW008 SCT019 BKN030 20/19 Q1015=
SBGL 072300Z 27006KT 220V300 8000 -RA FEW014 BKN030 BKN040 21/20 Q1015=
WC SBGL
WS SBGL
WV SBGL